ADDS TAF Board (Experimental) INFO Settings
IDs: Format: Expanded Condensed

KFLL - Ft Lauderdale-Hollyw, FL, US

Issued at 0531 UTC 06 Jul 2015
Updated at: 0708 UTC 06 Jul 2015
Time0653Z 06/08Z 06/09Z 06/10Z 06/11Z 06/12Z 06/13Z 06/14Z 06/15Z 06/16Z 06/17Z 06/18Z 06/19Z 06/20Z
Type OBS PRVL PRVL PRVL PRVL PRVL PRVL PRVL PRVL PRVL PRVL PRVL PRVL PRVL
VIS 10 >6 >6 >6 >6 >6 >6 >6 >6 >6 >6 >6 >6 >6
CIG -- -- -- -- -- -- -- -- -- -- -- -- -- --
Cover SCT SCT SCT SCT SCT SCT SCT SCT SCT SCT SCT SCT SCT SCT
FltCat VFR VFR VFR VFR VFR VFR VFR VFR VFR VFR VFR VFR VFR VFR
WX -- -- -- -- -- -- -- -- -- -- -- -- -- --
WDir 360 50 120 120 120 120 120 120 120 120 120 120 120 120
WSpd 3 12 7 7 7 7 7 12 12 12 12 12 12 12
WGst -- -- -- -- -- -- -- -- -- -- -- -- -- --
R10/28
XWnd 3 8 -3 -3 -3 -3 -3 -6 -6 -6 -6 -6 -6 -6
HWnd -0 9 6 6 6 6 6 10 10 10 10 10 10 10

NOTE: TEMPO conditions in [brackets]. Keep in mind TEMPO conditions might be better (lower impact) than prevailing conditions.

Raw TAF
KFLL 060531Z 0606/0706 05012KT P6SM FEW030 SCT080
  TEMPO 0606/0608 02014G22KT P6SM -SHRA FEW025 SCT070
  FM060900 12007KT P6SM FEW035 SCT090
  FM061400 12012KT P6SM SCT030
  FM070000 11006KT P6SM SKC


Raw METAR
KFLL 060653Z 36003KT 10SM SCT220 24/22 A3015 RMK AO2 SLP210 T02440222 $
KFLL 060553Z COR 35008KT 10SM BKN041 24/22 A3017 RMK AO2 WSHFT 0442 RAB18E51 SLP217 P0018 60018 T0239 10300 20233 50002 $
KFLL 060543Z 36010KT 4SM RA BR BKN039 OVC048 23/23 A3017 RMK AO2 WSHFT 0442 RAB18 P0018 T02330228 $
KFLL 060533Z 35011G20KT 2 1/2SM +RA BR FEW029 OVC035 23/22 A3018 RMK AO2 WSHFT 0442 RAB18 P0013 T02330222
KFLL 060458Z 35014G22KT 10SM SCT019 BKN034 26/22 A3019 RMK AO2 WSHFT 0442 T02560217
KFLL 060453Z 35013G22KT 10SM FEW030 BKN040 OVC080 26/22 A3019 RMK AO2 SLP222 T02560222 403280256

METAR Board
Radar Display
Forecast Discussion

TAF Board Legend

Potential Impact
Threat None Slight Moderate High
Visibility (sm) ≥5.1 5.1>X≥3 3>X≥1 <1
Ceiling (100 ft) ≥30.1 30.1>X≥10 10>X≥5 <5
Wind Speed (kt) <10 10≤X<20 20≤X<30 ≥30
Wind Gust (kt) <15 15≤X<25 25≤X<35 ≥35
Weather No Wx Reported VCTS,-TS,-FZRA,SN TS,FZRA +TS,+FZRA,+SN